Erfurt Airport EDDE

Flugplatz Daten

Name: Erfurt Airport

Ident: EDDE

Lat: 50,97980118

Long: 10,95810032

Platzhöhe: 1036 ft

IataCode: ERF

City: Erfurt

Homepage: http://www.airport-erfurt.de/

Metar

2022/08/10 20:20
EDDE 102020Z AUTO 06003KT CAVOK 22/07 Q1025

Taf

2022/08/10 18:27
TAF EDDE 101700Z 1018/1118 08007KT CAVOK
BECMG 1019/1022 VRB03KT
BECMG 1107/1109 06008KT
Gewünschte Webcam nicht vorhanden? Dann fügen Sie eine hinzu. Sie wird dann so schnell wie möglich freigeschaltet
Url: Title: